createdAt,value
2017-11-30T14:42:11.279Z,3.2
2017-11-30T14:52:35.817Z,3.8
2017-11-30T15:03:14.561Z,4.2
2017-11-30T15:13:34.615Z,5.1
2017-11-30T15:23:50.601Z,6.2
2017-11-30T15:34:06.000Z,7.4
2017-11-30T15:44:22.527Z,7.1
2017-11-30T15:54:39.294Z,6.5
2017-11-30T16:04:54.587Z,7.5
2017-11-30T16:15:09.657Z,8.4
2017-11-30T16:25:24.336Z,10.7
2017-11-30T16:35:41.061Z,11.3
2017-11-30T16:45:55.740Z,8.4
2017-11-30T16:56:10.974Z,7.7
2017-11-30T17:06:25.820Z,7.6
2017-11-30T17:16:41.242Z,7.5
2017-11-30T17:26:58.002Z,7.7
2017-11-30T17:37:13.801Z,7.8
2017-11-30T17:47:29.132Z,8.8
2017-11-30T17:57:44.067Z,14.2
2017-11-30T18:07:59.840Z,12
2017-11-30T18:18:15.127Z,27.8
2017-11-30T18:28:30.100Z,14.5
2017-11-30T18:38:45.719Z,16
2017-11-30T18:49:01.934Z,9.4
2017-11-30T18:59:17.098Z,10.2
2017-11-30T19:09:32.219Z,11.3
2017-11-30T19:19:50.021Z,11.5
2017-11-30T19:30:05.809Z,26
2017-11-30T19:40:20.242Z,18
2017-11-30T19:50:35.320Z,8.8
2017-11-30T20:00:50.557Z,9.2
2017-11-30T20:11:05.520Z,10.2
2017-11-30T20:21:20.992Z,10.9
2017-11-30T20:31:37.943Z,8.5
2017-11-30T20:41:52.918Z,6.7
2017-11-30T20:52:07.708Z,5.9
2017-11-30T21:02:22.698Z,5.4
2017-11-30T21:12:38.181Z,6.3
2017-11-30T21:22:53.067Z,7
2017-11-30T21:33:07.911Z,5.9
2017-11-30T21:43:22.500Z,5.7
2017-11-30T21:53:36.800Z,5.6
2017-11-30T22:03:51.090Z,5.2
2017-11-30T22:14:06.096Z,5.7
2017-11-30T22:24:20.761Z,6.2
2017-11-30T22:34:35.239Z,7.2
2017-11-30T22:44:50.409Z,6.5
2017-11-30T22:55:05.068Z,5.5
2017-11-30T23:05:19.863Z,5.5
2017-11-30T23:15:35.999Z,4.5
2017-11-30T23:25:50.772Z,5
2017-11-30T23:36:05.788Z,4
2017-11-30T23:46:21.589Z,4.5
2017-11-30T23:56:37.222Z,4.4
